createdAt,value
2023-09-30T00:01:14.656Z,11.88
2023-09-30T00:03:41.580Z,12.00
2023-09-30T00:06:08.183Z,11.95
2023-09-30T00:08:34.796Z,11.77
2023-09-30T00:11:01.373Z,11.64
2023-09-30T00:13:28.204Z,11.56
2023-09-30T00:15:55.021Z,11.52
2023-09-30T00:18:21.808Z,11.52
2023-09-30T00:20:48.566Z,11.47
2023-09-30T00:23:15.148Z,11.47
2023-09-30T00:25:41.844Z,11.40
2023-09-30T00:28:08.524Z,11.35
2023-09-30T00:30:35.161Z,11.39
2023-09-30T00:33:01.827Z,11.30
2023-09-30T00:35:28.449Z,11.21
2023-09-30T00:37:55.257Z,11.12
2023-09-30T00:40:22.468Z,11.06
2023-09-30T00:42:49.060Z,10.96
2023-09-30T00:47:41.720Z,10.92
2023-09-30T00:50:09.629Z,10.94
2023-09-30T00:52:37.307Z,10.95
2023-09-30T00:55:04.452Z,10.97
2023-09-30T00:57:32.060Z,10.89
2023-09-30T00:59:59.620Z,10.89
2023-09-30T01:02:26.688Z,10.98
2023-09-30T01:04:54.729Z,10.92
2023-09-30T01:07:21.252Z,10.95
2023-09-30T01:09:49.523Z,10.96
2023-09-30T01:12:16.057Z,10.93
2023-09-30T01:14:43.192Z,10.89
2023-09-30T01:17:10.094Z,10.85
2023-09-30T01:19:36.869Z,10.83
2023-09-30T01:22:03.496Z,10.84
2023-09-30T01:24:30.898Z,10.96
2023-09-30T01:26:58.231Z,10.86
2023-09-30T01:29:24.753Z,10.83
2023-09-30T01:31:51.517Z,10.84
2023-09-30T01:34:18.267Z,11.02
2023-09-30T01:36:45.256Z,11.08
2023-09-30T01:39:12.595Z,10.98
2023-09-30T01:41:40.912Z,10.99
2023-09-30T01:44:08.319Z,10.86
2023-09-30T01:46:35.033Z,10.69
2023-09-30T01:49:03.229Z,10.57
2023-09-30T01:51:30.151Z,10.62
2023-09-30T01:53:57.057Z,10.75
2023-09-30T01:56:23.863Z,10.65
2023-09-30T01:58:50.599Z,10.73
2023-09-30T02:01:17.281Z,10.59
2023-09-30T02:03:44.017Z,10.53
2023-09-30T02:06:10.751Z,10.51
2023-09-30T02:08:37.354Z,10.50
2023-09-30T02:11:04.422Z,10.46
2023-09-30T02:13:34.045Z,10.41
2023-09-30T02:16:00.762Z,10.31
2023-09-30T02:18:27.385Z,10.29
2023-09-30T02:20:53.922Z,10.25
2023-09-30T02:23:20.573Z,10.23
2023-09-30T02:25:47.069Z,10.23
2023-09-30T02:28:13.699Z,10.23
2023-09-30T02:30:40.271Z,10.16
2023-09-30T02:33:06.938Z,10.07
2023-09-30T02:35:33.602Z,10.05
2023-09-30T02:38:04.766Z,10.01
2023-09-30T02:40:31.483Z,10.20
2023-09-30T02:42:57.998Z,10.41
2023-09-30T02:45:25.006Z,10.44
2023-09-30T02:47:51.657Z,10.36
2023-09-30T02:50:18.245Z,10.20
2023-09-30T02:52:45.523Z,10.13
2023-09-30T02:55:13.518Z,10.05
2023-09-30T02:57:40.515Z,9.98
2023-09-30T03:00:10.438Z,9.97
2023-09-30T03:02:37.536Z,9.97
2023-09-30T03:05:07.340Z,9.95
2023-09-30T03:07:33.921Z,10.04
2023-09-30T03:10:02.907Z,10.04
2023-09-30T03:12:29.489Z,9.98
2023-09-30T03:14:55.997Z,10.12
2023-09-30T03:17:22.549Z,10.10
2023-09-30T03:19:49.108Z,10.17
2023-09-30T03:22:15.667Z,10.25
2023-09-30T03:24:42.292Z,10.33
2023-09-30T03:27:09.418Z,10.36
2023-09-30T03:29:39.050Z,10.34
2023-09-30T03:32:05.951Z,10.39
2023-09-30T03:34:32.556Z,10.23
2023-09-30T03:36:59.103Z,10.12
2023-09-30T03:39:26.053Z,10.07
2023-09-30T03:41:52.683Z,10.03
2023-09-30T03:44:19.266Z,10.01
2023-09-30T03:46:46.948Z,10.01
2023-09-30T03:49:13.459Z,10.10
2023-09-30T03:51:43.532Z,10.10
2023-09-30T03:54:10.187Z,10.10
2023-09-30T03:56:36.787Z,10.09
2023-09-30T03:59:05.052Z,10.08
2023-09-30T04:01:31.711Z,10.14
2023-09-30T04:03:58.588Z,10.13
2023-09-30T04:06:25.486Z,10.24
2023-09-30T04:08:52.092Z,10.25
2023-09-30T04:11:18.656Z,10.19
2023-09-30T04:13:45.933Z,10.19
2023-09-30T04:16:12.787Z,10.17
2023-09-30T04:18:39.475Z,10.16
2023-09-30T04:21:06.096Z,10.10
2023-09-30T04:23:32.733Z,10.12
2023-09-30T04:25:59.416Z,10.15
2023-09-30T04:28:26.109Z,10.20
2023-09-30T04:30:52.800Z,10.11
2023-09-30T04:33:19.786Z,10.11
2023-09-30T04:38:11.729Z,10.09
2023-09-30T04:40:38.437Z,10.08
2023-09-30T04:43:05.114Z,10.06
2023-09-30T04:45:31.915Z,10.16
2023-09-30T04:47:58.480Z,10.32
2023-09-30T04:50:25.236Z,10.31
2023-09-30T04:52:52.711Z,10.31
2023-09-30T04:55:19.436Z,10.41
2023-09-30T04:57:47.469Z,10.38
2023-09-30T05:00:20.579Z,10.41
2023-09-30T05:02:48.325Z,10.43
2023-09-30T05:05:15.265Z,10.42
2023-09-30T05:07:42.161Z,10.45
2023-09-30T05:10:09.449Z,10.47
2023-09-30T05:12:35.968Z,10.53
2023-09-30T05:15:02.579Z,10.58
2023-09-30T05:17:29.856Z,10.60
2023-09-30T05:20:00.203Z,10.66
2023-09-30T05:22:26.745Z,10.71
2023-09-30T05:24:53.524Z,10.77
2023-09-30T05:27:20.739Z,10.84
2023-09-30T05:29:47.241Z,10.94
2023-09-30T05:32:13.752Z,11.05
2023-09-30T05:34:40.420Z,11.13
2023-09-30T05:37:07.298Z,11.22
2023-09-30T05:39:36.313Z,11.29
2023-09-30T05:42:03.395Z,11.30
2023-09-30T05:44:30.305Z,11.35
2023-09-30T05:46:57.120Z,11.29
2023-09-30T05:49:24.898Z,11.27
2023-09-30T05:51:51.523Z,11.32
2023-09-30T05:54:20.316Z,11.30
2023-09-30T05:56:47.077Z,11.29
2023-09-30T05:59:14.710Z,11.35
2023-09-30T06:01:41.406Z,11.39
2023-09-30T06:04:08.065Z,11.53
2023-09-30T06:06:34.919Z,11.67
2023-09-30T06:09:01.803Z,11.77
2023-09-30T06:11:29.181Z,11.77
2023-09-30T06:13:56.316Z,11.73
2023-09-30T06:16:23.232Z,11.76
2023-09-30T06:18:49.906Z,11.78
2023-09-30T06:21:16.570Z,11.86
2023-09-30T06:23:43.089Z,11.99
2023-09-30T06:26:13.433Z,12.04
2023-09-30T06:28:39.962Z,12.11
2023-09-30T06:31:07.278Z,12.29
2023-09-30T06:33:33.993Z,12.31
2023-09-30T06:36:00.597Z,12.35
2023-09-30T06:38:27.230Z,12.51
2023-09-30T06:40:53.817Z,12.66
2023-09-30T06:43:21.041Z,12.78
2023-09-30T06:45:47.884Z,12.92
2023-09-30T06:48:15.752Z,13.12
2023-09-30T06:50:50.312Z,13.12
2023-09-30T06:53:17.758Z,13.24
2023-09-30T06:55:44.592Z,13.30
2023-09-30T06:58:11.687Z,13.41
2023-09-30T07:00:39.527Z,13.46
2023-09-30T07:03:06.857Z,13.57
2023-09-30T07:05:35.564Z,13.79
2023-09-30T07:08:02.273Z,13.98
2023-09-30T07:10:29.588Z,14.23
2023-09-30T07:12:56.777Z,14.31
2023-09-30T07:15:23.542Z,14.52
2023-09-30T07:17:50.250Z,14.63
2023-09-30T07:20:17.900Z,14.58
2023-09-30T07:22:55.737Z,14.77
2023-09-30T07:25:30.451Z,15.07
2023-09-30T07:27:58.844Z,15.32
2023-09-30T07:30:26.650Z,15.52
2023-09-30T07:32:53.489Z,15.70
2023-09-30T07:35:20.381Z,15.83
2023-09-30T07:37:46.990Z,15.91
2023-09-30T07:40:14.199Z,15.93
2023-09-30T07:42:42.178Z,16.03
2023-09-30T07:45:09.888Z,16.33
2023-09-30T07:47:37.881Z,16.61
2023-09-30T07:50:04.938Z,16.73
2023-09-30T07:52:34.183Z,16.88
2023-09-30T07:55:00.824Z,17.11
2023-09-30T07:57:27.444Z,17.38
2023-09-30T07:59:54.048Z,17.65
2023-09-30T08:02:20.592Z,17.79
2023-09-30T08:04:48.638Z,17.93
2023-09-30T08:07:15.323Z,18.13
2023-09-30T08:09:41.914Z,18.29
2023-09-30T08:12:08.994Z,18.50
2023-09-30T08:14:35.553Z,18.75
2023-09-30T08:17:03.215Z,18.95
2023-09-30T08:19:29.761Z,19.18
2023-09-30T08:21:58.275Z,19.41
2023-09-30T08:24:24.945Z,19.58
2023-09-30T08:26:51.603Z,19.64
2023-09-30T08:29:18.303Z,19.71
2023-09-30T08:34:15.038Z,20.16
2023-09-30T08:36:42.141Z,20.37
2023-09-30T08:39:08.798Z,20.71
2023-09-30T08:41:35.471Z,20.82
2023-09-30T08:44:03.094Z,20.80
2023-09-30T08:46:34.577Z,20.85
2023-09-30T08:49:05.876Z,21.16
2023-09-30T08:51:33.266Z,21.44
2023-09-30T08:54:01.464Z,21.66
2023-09-30T08:56:29.635Z,22.04
2023-09-30T08:58:59.497Z,22.23
2023-09-30T09:01:28.897Z,22.45
2023-09-30T09:03:56.221Z,22.83
2023-09-30T09:06:27.425Z,23.04
2023-09-30T09:08:54.646Z,23.43
2023-09-30T09:11:21.498Z,23.61
2023-09-30T09:13:51.838Z,24.04
2023-09-30T09:16:19.462Z,24.13
2023-09-30T09:18:46.533Z,24.06
2023-09-30T09:21:15.513Z,23.75
2023-09-30T09:23:43.842Z,23.90
2023-09-30T09:26:12.327Z,23.95
2023-09-30T09:28:39.489Z,24.28
2023-09-30T09:31:21.479Z,24.45
2023-09-30T09:33:49.277Z,24.80
2023-09-30T09:36:16.545Z,25.07
2023-09-30T09:38:47.542Z,25.30
2023-09-30T09:41:14.185Z,25.15
2023-09-30T09:43:43.458Z,24.86
2023-09-30T09:46:10.772Z,24.50
2023-09-30T09:48:37.890Z,24.26
2023-09-30T09:51:10.032Z,24.04
2023-09-30T09:53:40.095Z,24.11
2023-09-30T09:56:09.610Z,24.10
2023-09-30T09:58:36.683Z,24.20
2023-09-30T10:01:03.507Z,24.48
2023-09-30T10:03:30.799Z,24.76
2023-09-30T10:05:57.823Z,24.87
2023-09-30T10:08:32.070Z,24.74
2023-09-30T10:10:58.905Z,24.68
2023-09-30T10:13:51.901Z,24.54
2023-09-30T10:16:37.535Z,24.54
2023-09-30T10:19:16.129Z,24.72
2023-09-30T10:22:19.953Z,24.77
2023-09-30T10:24:48.028Z,24.81
2023-09-30T10:27:27.704Z,24.99
2023-09-30T10:30:07.368Z,25.11
2023-09-30T10:32:53.335Z,25.22
2023-09-30T10:35:21.644Z,25.11
2023-09-30T10:37:49.598Z,24.98
2023-09-30T10:40:31.333Z,25.28
2023-09-30T10:42:58.230Z,25.43
2023-09-30T10:45:46.254Z,25.39
2023-09-30T10:48:32.191Z,25.32
2023-09-30T10:51:02.865Z,25.19
2023-09-30T10:53:29.790Z,25.21
2023-09-30T10:55:58.333Z,25.48
2023-09-30T10:58:44.869Z,25.75
2023-09-30T11:01:17.410Z,25.89
2023-09-30T11:03:45.501Z,25.81
2023-09-30T11:06:13.897Z,25.68
2023-09-30T11:08:46.912Z,25.55
2023-09-30T11:11:14.136Z,25.44
2023-09-30T11:13:40.905Z,25.51
2023-09-30T11:16:07.593Z,25.71
2023-09-30T11:18:34.220Z,25.80
2023-09-30T11:21:09.553Z,25.79
2023-09-30T11:23:36.825Z,25.71
2023-09-30T11:26:03.751Z,25.85
2023-09-30T11:28:46.523Z,26.14
2023-09-30T11:31:13.985Z,26.39
2023-09-30T11:33:54.768Z,26.42
2023-09-30T11:36:22.160Z,26.31
2023-09-30T11:38:50.673Z,26.06
2023-09-30T11:41:18.429Z,26.00
2023-09-30T11:44:14.056Z,26.10
2023-09-30T11:46:51.086Z,25.93
2023-09-30T11:49:38.609Z,25.85
2023-09-30T11:52:12.392Z,25.90
2023-09-30T11:54:41.059Z,25.95
2023-09-30T11:57:08.599Z,25.95
2023-09-30T11:59:35.261Z,26.00
2023-09-30T12:04:31.540Z,26.33
2023-09-30T12:06:58.391Z,26.36
2023-09-30T12:09:25.273Z,26.28
2023-09-30T12:11:52.855Z,26.27
2023-09-30T12:14:19.524Z,26.43
2023-09-30T12:16:46.249Z,26.46
2023-09-30T12:19:15.252Z,26.46
2023-09-30T12:21:42.675Z,26.52
2023-09-30T12:24:09.566Z,26.60
2023-09-30T12:26:40.506Z,26.56
2023-09-30T12:29:07.092Z,26.60
2023-09-30T12:31:46.154Z,26.62
2023-09-30T12:34:19.107Z,26.78
2023-09-30T12:36:45.873Z,26.91
2023-09-30T12:39:12.681Z,27.02
2023-09-30T12:41:45.655Z,27.15
2023-09-30T12:44:12.992Z,27.14
2023-09-30T12:46:39.541Z,27.11
2023-09-30T12:49:06.928Z,27.02
2023-09-30T12:51:37.354Z,26.99
2023-09-30T12:54:04.548Z,27.06
2023-09-30T12:56:31.290Z,27.08
2023-09-30T12:58:58.986Z,26.98
2023-09-30T13:01:26.630Z,26.93
2023-09-30T13:03:53.896Z,26.98
2023-09-30T13:06:21.059Z,27.06
2023-09-30T13:11:15.623Z,27.01
2023-09-30T13:13:42.331Z,27.03
2023-09-30T13:16:11.873Z,27.01
2023-09-30T13:18:38.594Z,27.07
2023-09-30T13:21:06.508Z,27.12
2023-09-30T13:23:33.656Z,27.07
2023-09-30T13:26:00.317Z,27.03
2023-09-30T13:28:28.148Z,27.09
2023-09-30T13:30:54.943Z,27.00
2023-09-30T13:33:22.625Z,26.99
2023-09-30T13:35:49.341Z,26.97
2023-09-30T13:38:16.220Z,26.97
2023-09-30T13:40:43.213Z,26.82
2023-09-30T13:43:10.012Z,26.62
2023-09-30T13:45:36.668Z,26.57
2023-09-30T13:48:03.893Z,26.46
2023-09-30T13:50:30.520Z,26.32
2023-09-30T13:52:57.116Z,26.27
2023-09-30T13:55:24.650Z,26.18
2023-09-30T13:57:51.452Z,26.13
2023-09-30T14:00:19.094Z,26.04
2023-09-30T14:02:45.851Z,26.00
2023-09-30T14:05:12.655Z,25.91
2023-09-30T14:07:39.415Z,25.85
2023-09-30T14:10:06.980Z,25.83
2023-09-30T14:12:33.908Z,25.78
2023-09-30T14:15:01.898Z,25.79
2023-09-30T14:17:30.267Z,25.71
2023-09-30T14:19:56.994Z,25.64
2023-09-30T14:22:23.660Z,25.60
2023-09-30T14:24:50.237Z,25.58
2023-09-30T14:27:17.417Z,25.54
2023-09-30T14:29:44.215Z,25.53
2023-09-30T14:32:11.021Z,25.50
2023-09-30T14:34:37.813Z,25.43
2023-09-30T14:37:04.572Z,25.46
2023-09-30T14:39:31.240Z,25.37
2023-09-30T14:41:57.861Z,25.36
2023-09-30T14:44:24.439Z,25.34
2023-09-30T14:46:51.183Z,25.24
2023-09-30T14:49:17.818Z,25.18
2023-09-30T14:51:44.560Z,25.13
2023-09-30T14:54:11.170Z,25.12
2023-09-30T14:56:37.750Z,25.08
2023-09-30T15:01:29.790Z,25.03
2023-09-30T15:03:56.744Z,24.97
2023-09-30T15:06:24.485Z,25.00
2023-09-30T15:08:52.453Z,24.97
2023-09-30T15:11:19.173Z,24.95
2023-09-30T15:13:46.778Z,24.88
2023-09-30T15:16:17.650Z,24.82
2023-09-30T15:18:44.346Z,24.81
2023-09-30T15:21:10.937Z,24.76
2023-09-30T15:23:37.719Z,24.69
2023-09-30T15:26:04.376Z,24.60
2023-09-30T15:28:31.135Z,24.50
2023-09-30T15:30:57.918Z,24.40
2023-09-30T15:33:24.692Z,24.32
2023-09-30T15:35:51.546Z,24.26
2023-09-30T15:38:18.854Z,24.21
2023-09-30T15:40:55.876Z,24.11
2023-09-30T15:43:22.629Z,24.04
2023-09-30T15:45:49.637Z,23.92
2023-09-30T15:48:16.328Z,23.85
2023-09-30T15:50:43.596Z,23.77
2023-09-30T15:53:11.255Z,23.64
2023-09-30T15:55:37.989Z,23.57
2023-09-30T15:58:05.733Z,23.48
2023-09-30T16:00:32.887Z,23.36
2023-09-30T16:02:59.684Z,23.24
2023-09-30T16:05:26.453Z,23.08
2023-09-30T16:07:53.391Z,23.00
2023-09-30T16:10:20.370Z,22.95
2023-09-30T16:12:47.179Z,22.88
2023-09-30T16:15:13.899Z,22.77
2023-09-30T16:17:40.594Z,22.70
2023-09-30T16:20:10.513Z,22.67
2023-09-30T16:22:37.132Z,22.63
2023-09-30T16:25:04.006Z,22.56
2023-09-30T16:27:33.070Z,22.48
2023-09-30T16:29:59.990Z,22.36
2023-09-30T16:32:28.194Z,22.30
2023-09-30T16:34:55.845Z,22.19
2023-09-30T16:37:22.445Z,22.22
2023-09-30T16:39:49.290Z,22.08
2023-09-30T16:42:15.806Z,21.83
2023-09-30T16:44:42.321Z,21.56
2023-09-30T16:47:09.688Z,21.40
2023-09-30T16:49:37.820Z,21.24
2023-09-30T16:54:54.771Z,20.98
2023-09-30T16:57:21.348Z,20.89
2023-09-30T16:59:48.097Z,20.84
2023-09-30T17:02:14.752Z,20.79
2023-09-30T17:04:45.994Z,20.73
2023-09-30T17:07:13.030Z,20.71
2023-09-30T17:09:39.762Z,20.64
2023-09-30T17:12:07.161Z,20.59
2023-09-30T17:14:35.118Z,20.51
2023-09-30T17:17:02.448Z,20.44
2023-09-30T17:19:29.650Z,20.36
2023-09-30T17:21:56.564Z,20.23
2023-09-30T17:24:23.432Z,20.07
2023-09-30T17:26:51.327Z,19.95
2023-09-30T17:29:17.940Z,19.56
2023-09-30T17:31:44.976Z,19.44
2023-09-30T17:34:11.860Z,19.27
2023-09-30T17:36:38.970Z,19.15
2023-09-30T17:39:05.822Z,18.97
2023-09-30T17:41:36.482Z,18.86
2023-09-30T17:44:05.519Z,18.73
2023-09-30T17:46:32.316Z,18.78
2023-09-30T17:48:59.532Z,18.72
2023-09-30T17:51:27.464Z,18.72
2023-09-30T17:53:55.067Z,18.52
2023-09-30T17:56:22.512Z,18.43
2023-09-30T17:58:50.107Z,18.23
2023-09-30T18:01:17.812Z,18.17
2023-09-30T18:03:44.628Z,18.20
2023-09-30T18:06:11.325Z,18.02
2023-09-30T18:08:39.272Z,18.00
2023-09-30T18:11:07.700Z,18.14
2023-09-30T18:13:34.246Z,18.23
2023-09-30T18:16:02.295Z,18.19
2023-09-30T18:18:30.133Z,18.00
2023-09-30T18:20:58.025Z,17.91
2023-09-30T18:23:24.629Z,17.69
2023-09-30T18:25:51.218Z,17.54
2023-09-30T18:28:18.069Z,17.51
2023-09-30T18:30:46.191Z,17.42
2023-09-30T18:33:15.675Z,17.29
2023-09-30T18:38:12.373Z,17.13
2023-09-30T18:40:39.195Z,17.06
2023-09-30T18:43:06.445Z,16.92
2023-09-30T18:45:33.192Z,16.85
2023-09-30T18:47:59.797Z,16.81
2023-09-30T18:50:26.396Z,16.76
2023-09-30T18:52:54.270Z,16.66
2023-09-30T18:55:20.934Z,16.61
2023-09-30T18:57:47.581Z,16.46
2023-09-30T19:00:17.443Z,16.39
2023-09-30T19:02:44.482Z,16.39
2023-09-30T19:05:11.067Z,16.39
2023-09-30T19:07:40.560Z,16.30
2023-09-30T19:10:08.804Z,16.19
2023-09-30T19:12:35.411Z,16.14
2023-09-30T19:15:03.136Z,16.03
2023-09-30T19:17:29.758Z,15.94
2023-09-30T19:19:56.298Z,15.91
2023-09-30T19:22:22.869Z,15.83
2023-09-30T19:24:49.742Z,15.80
2023-09-30T19:27:16.428Z,15.66
2023-09-30T19:29:44.125Z,15.56
2023-09-30T19:32:10.737Z,15.58
2023-09-30T19:34:37.258Z,15.54
2023-09-30T19:37:03.913Z,15.50
2023-09-30T19:39:30.770Z,15.43
2023-09-30T19:41:57.479Z,15.37
2023-09-30T19:44:25.371Z,15.37
2023-09-30T19:46:52.086Z,15.31
2023-09-30T19:49:18.878Z,15.21
2023-09-30T19:51:45.508Z,15.24
2023-09-30T19:54:12.566Z,15.18
2023-09-30T19:56:39.180Z,15.26
2023-09-30T19:59:07.088Z,15.26
2023-09-30T20:01:33.887Z,15.12
2023-09-30T20:04:00.774Z,15.23
2023-09-30T20:06:27.262Z,15.20
2023-09-30T20:08:53.849Z,15.10
2023-09-30T20:11:25.341Z,15.00
2023-09-30T20:13:53.227Z,14.99
2023-09-30T20:16:21.341Z,14.93
2023-09-30T20:18:48.315Z,14.95
2023-09-30T20:21:15.110Z,14.93
2023-09-30T20:23:42.177Z,14.95
2023-09-30T20:26:09.498Z,14.88
2023-09-30T20:31:06.172Z,14.77
2023-09-30T20:33:33.323Z,14.62
2023-09-30T20:35:59.888Z,14.63
2023-09-30T20:38:26.394Z,14.48
2023-09-30T20:40:52.925Z,14.46
2023-09-30T20:43:19.570Z,14.45
2023-09-30T20:45:46.159Z,14.52
2023-09-30T20:48:12.741Z,14.58
2023-09-30T20:50:39.330Z,14.72
2023-09-30T20:53:06.345Z,14.84
2023-09-30T20:55:34.205Z,14.74
2023-09-30T20:58:00.772Z,14.55
2023-09-30T21:00:27.696Z,14.43
2023-09-30T21:02:54.341Z,14.39
2023-09-30T21:05:21.190Z,14.40
2023-09-30T21:07:47.917Z,14.48
2023-09-30T21:10:15.118Z,14.42
2023-09-30T21:12:41.774Z,14.32
2023-09-30T21:15:09.118Z,14.31
2023-09-30T21:17:36.904Z,14.16
2023-09-30T21:20:04.604Z,14.12
2023-09-30T21:22:32.733Z,14.09
2023-09-30T21:24:59.411Z,14.09
2023-09-30T21:27:26.067Z,14.04
2023-09-30T21:29:53.100Z,14.18
2023-09-30T21:32:19.587Z,14.21
2023-09-30T21:34:47.405Z,14.11
2023-09-30T21:37:14.054Z,14.04
2023-09-30T21:39:41.157Z,14.05
2023-09-30T21:42:07.705Z,14.10
2023-09-30T21:44:34.526Z,14.14
2023-09-30T21:47:02.990Z,14.16
2023-09-30T21:49:30.482Z,14.12
2023-09-30T21:51:57.148Z,14.10
2023-09-30T21:54:29.024Z,14.10
2023-09-30T21:56:55.667Z,14.12
2023-09-30T21:59:23.244Z,14.10
2023-09-30T22:01:49.976Z,14.12
2023-09-30T22:04:16.722Z,14.01
2023-09-30T22:06:44.505Z,13.88
2023-09-30T22:09:11.148Z,13.81
2023-09-30T22:11:41.476Z,13.77
2023-09-30T22:14:08.335Z,13.71
2023-09-30T22:16:35.177Z,13.64
2023-09-30T22:19:03.360Z,13.63
2023-09-30T22:21:30.001Z,13.58
2023-09-30T22:23:56.710Z,13.51
2023-09-30T22:26:23.277Z,13.47
2023-09-30T22:28:50.007Z,13.32
2023-09-30T22:31:16.806Z,13.25
2023-09-30T22:33:43.520Z,13.34
2023-09-30T22:36:10.096Z,13.43
2023-09-30T22:38:36.773Z,13.50
2023-09-30T22:41:03.497Z,13.50
2023-09-30T22:43:30.452Z,13.50
2023-09-30T22:45:56.975Z,13.52
2023-09-30T22:48:23.588Z,13.45
2023-09-30T22:50:50.379Z,13.33
2023-09-30T22:53:17.293Z,13.22
2023-09-30T22:55:43.963Z,13.24
2023-09-30T22:58:10.615Z,13.13
2023-09-30T23:00:37.160Z,13.15
2023-09-30T23:03:05.052Z,13.19
2023-09-30T23:05:31.685Z,13.05
2023-09-30T23:07:58.330Z,13.00
2023-09-30T23:10:25.408Z,12.84
2023-09-30T23:12:52.140Z,12.92
2023-09-30T23:15:20.426Z,12.85
2023-09-30T23:17:49.315Z,12.79
2023-09-30T23:20:18.356Z,12.85
2023-09-30T23:22:47.140Z,12.71
2023-09-30T23:25:14.477Z,12.62
2023-09-30T23:27:41.034Z,12.57
2023-09-30T23:30:08.008Z,12.57
2023-09-30T23:32:34.766Z,12.53
2023-09-30T23:35:01.463Z,12.57
2023-09-30T23:37:27.975Z,12.50
2023-09-30T23:39:54.527Z,12.44
2023-09-30T23:42:21.134Z,12.42
2023-09-30T23:44:47.637Z,12.31
2023-09-30T23:47:14.271Z,12.19
2023-09-30T23:49:40.945Z,12.16
2023-09-30T23:52:07.521Z,12.11
2023-09-30T23:54:34.115Z,12.10
2023-09-30T23:57:00.682Z,12.12
